sensor_id;sensor_type;location;lat;lon;timestamp;temperature;humidity
1165;DHT22;571;50.930;6.926;2023-04-03T02:46:11;4.50;95.70
1165;DHT22;571;50.930;6.926;2023-04-03T02:48:40;4.40;96.10
1165;DHT22;571;50.930;6.926;2023-04-03T02:51:07;4.50;95.70
1165;DHT22;571;50.930;6.926;2023-04-03T02:53:34;4.60;95.50
1165;DHT22;571;50.930;6.926;2023-04-03T02:56:00;4.60;95.30
1165;DHT22;571;50.930;6.926;2023-04-03T02:58:27;4.50;95.70
1165;DHT22;571;50.930;6.926;2023-04-03T03:00:54;4.40;95.90
1165;DHT22;571;50.930;6.926;2023-04-03T03:03:22;4.30;96.10
1165;DHT22;571;50.930;6.926;2023-04-03T03:05:49;4.30;96.10
1165;DHT22;571;50.930;6.926;2023-04-03T03:08:19;4.20;96.30
1165;DHT22;571;50.930;6.926;2023-04-03T03:10:46;4.20;95.90
1165;DHT22;571;50.930;6.926;2023-04-03T03:13:23;4.30;96.10
1165;DHT22;571;50.930;6.926;2023-04-03T03:16:21;4.30;95.90
1165;DHT22;571;50.930;6.926;2023-04-03T03:19:16;4.40;95.40
1165;DHT22;571;50.930;6.926;2023-04-03T03:21:59;4.50;95.10
1165;DHT22;571;50.930;6.926;2023-04-03T03:27:27;4.50;95.20
1165;DHT22;571;50.930;6.926;2023-04-03T03:30:17;4.60;95.10
1165;DHT22;571;50.930;6.926;2023-04-03T03:33:07;4.70;94.30
1165;DHT22;571;50.930;6.926;2023-04-03T03:35:56;4.50;94.70
1165;DHT22;571;50.930;6.926;2023-04-03T03:38:34;4.50;94.60
1165;DHT22;571;50.930;6.926;2023-04-03T03:41:11;4.50;94.70
1165;DHT22;571;50.930;6.926;2023-04-03T03:43:43;4.50;94.50
1165;DHT22;571;50.930;6.926;2023-04-03T03:46:43;4.50;94.60
1165;DHT22;571;50.930;6.926;2023-04-03T03:49:16;4.60;94.30
1165;DHT22;571;50.930;6.926;2023-04-03T03:51:56;4.60;94.40
1165;DHT22;571;50.930;6.926;2023-04-03T03:54:37;4.50;93.90
1165;DHT22;571;50.930;6.926;2023-04-03T03:57:15;4.50;94.20
1165;DHT22;571;50.930;6.926;2023-04-03T03:59:56;4.60;93.90
1165;DHT22;571;50.930;6.926;2023-04-03T04:02:42;4.70;93.70
1165;DHT22;571;50.930;6.926;2023-04-03T04:05:41;4.70;93.70
1165;DHT22;571;50.930;6.926;2023-04-03T04:08:22;4.70;93.70
1165;DHT22;571;50.930;6.926;2023-04-03T04:11:18;4.70;93.40
1165;DHT22;571;50.930;6.926;2023-04-03T04:14:11;4.90;93.40
1165;DHT22;571;50.930;6.926;2023-04-03T04:16:48;4.80;93.50
1165;DHT22;571;50.930;6.926;2023-04-03T04:19:17;5.50;94.70
1165;DHT22;571;50.930;6.926;2023-04-03T04:21:57;4.80;94.00
1165;DHT22;571;50.930;6.926;2023-04-03T04:27:44;4.80;93.40
1165;DHT22;571;50.930;6.926;2023-04-03T04:30:35;4.30;93.10
1165;DHT22;571;50.930;6.926;2023-04-03T04:36:02;4.50;93.50
1165;DHT22;571;50.930;6.926;2023-04-03T04:38:38;4.60;93.20
1165;DHT22;571;50.930;6.926;2023-04-03T04:41:11;4.60;93.10
1165;DHT22;571;50.930;6.926;2023-04-03T04:44:07;4.60;93.50
1165;DHT22;571;50.930;6.926;2023-04-03T04:46:44;4.50;93.50
1165;DHT22;571;50.930;6.926;2023-04-03T04:49:18;4.60;93.40
1165;DHT22;571;50.930;6.926;2023-04-03T04:51:54;4.60;93.10
1165;DHT22;571;50.930;6.926;2023-04-03T04:54:29;4.60;92.70
1165;DHT22;571;50.930;6.926;2023-04-03T04:57:19;4.50;92.90
1165;DHT22;571;50.930;6.926;2023-04-03T05:00:14;4.40;93.20
1165;DHT22;571;50.930;6.926;2023-04-03T05:03:39;4.40;93.20
1165;DHT22;571;50.930;6.926;2023-04-03T05:06:45;4.50;93.00
1165;DHT22;571;50.930;6.926;2023-04-03T05:09:33;4.50;93.00
1165;DHT22;571;50.930;6.926;2023-04-03T05:12:22;4.60;92.60
1165;DHT22;571;50.930;6.926;2023-04-03T05:15:10;4.60;92.50
1165;DHT22;571;50.930;6.926;2023-04-03T05:17:50;4.50;92.80
1165;DHT22;571;50.930;6.926;2023-04-03T05:20:47;4.50;92.60
1165;DHT22;571;50.930;6.926;2023-04-03T05:23:38;4.50;92.70
1165;DHT22;571;50.930;6.926;2023-04-03T05:26:15;4.50;92.60
1165;DHT22;571;50.930;6.926;2023-04-03T05:28:49;4.60;92.50
1165;DHT22;571;50.930;6.926;2023-04-03T05:31:28;4.60;92.30
1165;DHT22;571;50.930;6.926;2023-04-03T05:33:58;4.60;92.30
1165;DHT22;571;50.930;6.926;2023-04-03T05:36:39;4.60;92.20
1165;DHT22;571;50.930;6.926;2023-04-03T05:39:09;4.50;92.30
1165;DHT22;571;50.930;6.926;2023-04-03T05:41:41;4.50;92.50
1165;DHT22;571;50.930;6.926;2023-04-03T05:44:18;4.60;92.20
1165;DHT22;571;50.930;6.926;2023-04-03T05:47:00;4.50;92.30
1165;DHT22;571;50.930;6.926;2023-04-03T05:49:34;4.60;92.30
1165;DHT22;571;50.930;6.926;2023-04-03T05:52:17;4.60;92.60
1165;DHT22;571;50.930;6.926;2023-04-03T05:54:52;4.60;92.30
1165;DHT22;571;50.930;6.926;2023-04-03T05:57:33;4.70;92.40
1165;DHT22;571;50.930;6.926;2023-04-03T06:00:12;4.60;92.50
1165;DHT22;571;50.930;6.926;2023-04-03T06:02:44;4.70;92.70
1165;DHT22;571;50.930;6.926;2023-04-03T06:05:42;4.70;92.10
1165;DHT22;571;50.930;6.926;2023-04-03T06:08:26;4.70;92.70
1165;DHT22;571;50.930;6.926;2023-04-03T06:10:53;4.80;92.40
1165;DHT22;571;50.930;6.926;2023-04-03T06:13:24;4.90;91.90
1165;DHT22;571;50.930;6.926;2023-04-03T06:15:55;4.90;91.60
1165;DHT22;571;50.930;6.926;2023-04-03T06:18:27;5.00;91.90
1165;DHT22;571;50.930;6.926;2023-04-03T06:21:15;5.10;91.70
1165;DHT22;571;50.930;6.926;2023-04-03T06:23:49;5.10;91.70
1165;DHT22;571;50.930;6.926;2023-04-03T06:26:20;5.10;91.40
1165;DHT22;571;50.930;6.926;2023-04-03T06:29:12;5.10;90.90
1165;DHT22;571;50.930;6.926;2023-04-03T06:32:04;5.10;91.10
1165;DHT22;571;50.930;6.926;2023-04-03T06:34:31;5.30;91.00
1165;DHT22;571;50.930;6.926;2023-04-03T06:37:02;5.20;90.90
1165;DHT22;571;50.930;6.926;2023-04-03T06:39:30;5.20;90.30
1165;DHT22;571;50.930;6.926;2023-04-03T06:42:02;5.20;90.80
1165;DHT22;571;50.930;6.926;2023-04-03T06:44:32;5.30;91.00
1165;DHT22;571;50.930;6.926;2023-04-03T06:47:03;5.40;91.10
1165;DHT22;571;50.930;6.926;2023-04-03T06:49:32;5.40;90.70
1165;DHT22;571;50.930;6.926;2023-04-03T06:52:24;5.40;90.60
1165;DHT22;571;50.930;6.926;2023-04-03T06:54:51;5.40;90.80
1165;DHT22;571;50.930;6.926;2023-04-03T06:57:25;5.50;90.70
1165;DHT22;571;50.930;6.926;2023-04-03T06:59:52;5.50;91.30
1165;DHT22;571;50.930;6.926;2023-04-03T07:02:20;5.70;90.30
1165;DHT22;571;50.930;6.926;2023-04-03T07:04:47;5.80;90.30
1165;DHT22;571;50.930;6.926;2023-04-03T07:07:14;5.80;90.00
1165;DHT22;571;50.930;6.926;2023-04-03T07:09:45;5.80;88.70
1165;DHT22;571;50.930;6.926;2023-04-03T07:12:13;6.00;89.90
1165;DHT22;571;50.930;6.926;2023-04-03T07:14:47;6.10;89.40
1165;DHT22;571;50.930;6.926;2023-04-03T07:17:13;6.00;89.00
1165;DHT22;571;50.930;6.926;2023-04-03T07:19:44;6.10;88.40
1165;DHT22;571;50.930;6.926;2023-04-03T07:22:11;6.20;88.00
1165;DHT22;571;50.930;6.926;2023-04-03T07:24:41;6.10;88.50
1165;DHT22;571;50.930;6.926;2023-04-03T07:27:09;6.10;90.10
1165;DHT22;571;50.930;6.926;2023-04-03T07:29:38;6.40;88.10
1165;DHT22;571;50.930;6.926;2023-04-03T07:32:05;6.40;88.30
1165;DHT22;571;50.930;6.926;2023-04-03T07:34:32;6.40;86.00
1165;DHT22;571;50.930;6.926;2023-04-03T07:36:59;6.50;86.40
1165;DHT22;571;50.930;6.926;2023-04-03T07:39:26;6.40;86.70
1165;DHT22;571;50.930;6.926;2023-04-03T07:41:53;6.40;86.10
1165;DHT22;571;50.930;6.926;2023-04-03T07:44:23;6.40;87.20
1165;DHT22;571;50.930;6.926;2023-04-03T07:46:50;6.40;87.90
1165;DHT22;571;50.930;6.926;2023-04-03T07:49:17;6.40;87.00
1165;DHT22;571;50.930;6.926;2023-04-03T07:51:44;6.60;87.00
1165;DHT22;571;50.930;6.926;2023-04-03T07:54:12;6.60;86.40
1165;DHT22;571;50.930;6.926;2023-04-03T07:56:39;6.70;84.20
1165;DHT22;571;50.930;6.926;2023-04-03T07:59:08;6.70;85.50
1165;DHT22;571;50.930;6.926;2023-04-03T08:01:50;6.70;86.10
1165;DHT22;571;50.930;6.926;2023-04-03T08:04:57;6.80;85.90
1165;DHT22;571;50.930;6.926;2023-04-03T08:08:09;6.80;85.30
1165;DHT22;571;50.930;6.926;2023-04-03T08:10:39;6.90;84.60
1165;DHT22;571;50.930;6.926;2023-04-03T08:13:37;6.90;84.30
1165;DHT22;571;50.930;6.926;2023-04-03T08:16:20;6.90;84.00
1165;DHT22;571;50.930;6.926;2023-04-03T08:18:59;6.90;84.00
1165;DHT22;571;50.930;6.926;2023-04-03T08:22:02;7.00;82.60
1165;DHT22;571;50.930;6.926;2023-04-03T08:25:11;7.10;83.30
1165;DHT22;571;50.930;6.926;2023-04-03T08:31:13;7.20;85.50
1165;DHT22;571;50.930;6.926;2023-04-03T08:33:40;7.20;80.20
1165;DHT22;571;50.930;6.926;2023-04-03T08:36:17;7.20;79.60
1165;DHT22;571;50.930;6.926;2023-04-03T08:38:46;7.20;78.00
1165;DHT22;571;50.930;6.926;2023-04-03T08:41:19;7.20;79.20
1165;DHT22;571;50.930;6.926;2023-04-03T08:44:09;7.30;79.30
1165;DHT22;571;50.930;6.926;2023-04-03T08:46:52;7.40;77.80
1165;DHT22;571;50.930;6.926;2023-04-03T08:49:26;7.40;75.20
1165;DHT22;571;50.930;6.926;2023-04-03T08:51:57;7.40;73.20
1165;DHT22;571;50.930;6.926;2023-04-03T08:54:30;7.50;74.90
1165;DHT22;571;50.930;6.926;2023-04-03T08:56:58;7.60;76.80
1165;DHT22;571;50.930;6.926;2023-04-03T08:59:28;7.60;71.50
1165;DHT22;571;50.930;6.926;2023-04-03T09:01:57;7.60;71.70
1165;DHT22;571;50.930;6.926;2023-04-03T09:04:26;7.60;73.90
1165;DHT22;571;50.930;6.926;2023-04-03T09:06:57;7.50;71.90
1165;DHT22;571;50.930;6.926;2023-04-03T09:09:32;7.70;75.30
1165;DHT22;571;50.930;6.926;2023-04-03T09:12:16;7.80;72.70
1165;DHT22;571;50.930;6.926;2023-04-03T09:14:52;7.80;74.00
1165;DHT22;571;50.930;6.926;2023-04-03T09:17:31;7.90;73.20
1165;DHT22;571;50.930;6.926;2023-04-03T09:20:26;8.00;71.80
1165;DHT22;571;50.930;6.926;2023-04-03T09:23:22;8.10;72.20
1165;DHT22;571;50.930;6.926;2023-04-03T09:26:01;8.20;71.90
1165;DHT22;571;50.930;6.926;2023-04-03T09:28:32;8.20;71.40
1165;DHT22;571;50.930;6.926;2023-04-03T09:31:06;8.20;67.50
1165;DHT22;571;50.930;6.926;2023-04-03T09:33:49;8.20;71.20
1165;DHT22;571;50.930;6.926;2023-04-03T09:36:46;8.30;71.20
1165;DHT22;571;50.930;6.926;2023-04-03T09:39:52;8.30;69.70
1165;DHT22;571;50.930;6.926;2023-04-03T09:42:40;8.40;70.90
1165;DHT22;571;50.930;6.926;2023-04-03T09:52:25;8.40;67.50
1165;DHT22;571;50.930;6.926;2023-04-03T09:55:17;8.60;66.90
1165;DHT22;571;50.930;6.926;2023-04-03T10:01:56;8.80;65.90
1165;DHT22;571;50.930;6.926;2023-04-03T10:08:59;8.90;63.00
1165;DHT22;571;50.930;6.926;2023-04-03T10:15:33;8.90;60.80
1165;DHT22;571;50.930;6.926;2023-04-03T10:18:38;9.00;59.10
1165;DHT22;571;50.930;6.926;2023-04-03T10:21:20;9.00;58.90
1165;DHT22;571;50.930;6.926;2023-04-03T10:30:27;9.20;56.00
1165;DHT22;571;50.930;6.926;2023-04-03T10:33:55;9.30;57.10
1165;DHT22;571;50.930;6.926;2023-04-03T10:37:03;9.40;55.30
1165;DHT22;571;50.930;6.926;2023-04-03T10:39:41;9.50;56.30
1165;DHT22;571;50.930;6.926;2023-04-03T10:42:15;9.50;52.90
1165;DHT22;571;50.930;6.926;2023-04-03T10:44:58;9.50;50.00
1165;DHT22;571;50.930;6.926;2023-04-03T10:47:34;9.50;55.10
1165;DHT22;571;50.930;6.926;2023-04-03T10:50:15;9.70;54.90
1165;DHT22;571;50.930;6.926;2023-04-03T10:52:55;9.90;53.40
1165;DHT22;571;50.930;6.926;2023-04-03T10:55:31;10.00;52.20
1165;DHT22;571;50.930;6.926;2023-04-03T10:58:06;10.10;48.80
1165;DHT22;571;50.930;6.926;2023-04-03T11:00:39;10.00;44.40
1165;DHT22;571;50.930;6.926;2023-04-03T11:03:22;10.30;48.70
1165;DHT22;571;50.930;6.926;2023-04-03T11:05:53;10.60;47.30
1165;DHT22;571;50.930;6.926;2023-04-03T11:08:32;10.70;44.30
1165;DHT22;571;50.930;6.926;2023-04-03T11:11:11;10.90;45.60
1165;DHT22;571;50.930;6.926;2023-04-03T11:13:43;10.90;43.10
1165;DHT22;571;50.930;6.926;2023-04-03T11:16:19;11.20;45.40
1165;DHT22;571;50.930;6.926;2023-04-03T11:19:01;11.40;45.30
1165;DHT22;571;50.930;6.926;2023-04-03T11:21:37;11.40;47.50
1165;DHT22;571;50.930;6.926;2023-04-03T11:24:15;11.60;45.70
1165;DHT22;571;50.930;6.926;2023-04-03T11:26:43;11.90;45.70
1165;DHT22;571;50.930;6.926;2023-04-03T11:29:17;12.10;45.80
1165;DHT22;571;50.930;6.926;2023-04-03T11:32:01;12.20;43.30
1165;DHT22;571;50.930;6.926;2023-04-03T11:34:39;12.30;46.70
1165;DHT22;571;50.930;6.926;2023-04-03T11:37:20;12.60;47.10
1165;DHT22;571;50.930;6.926;2023-04-03T11:39:54;13.10;43.80
1165;DHT22;571;50.930;6.926;2023-04-03T11:42:28;13.40;44.60
1165;DHT22;571;50.930;6.926;2023-04-03T11:45:26;13.70;44.60
1165;DHT22;571;50.930;6.926;2023-04-03T11:47:55;13.80;45.10
1165;DHT22;571;50.930;6.926;2023-04-03T11:54:36;13.80;43.70
1165;DHT22;571;50.930;6.926;2023-04-03T11:57:43;14.30;40.90
1165;DHT22;571;50.930;6.926;2023-04-03T12:07:01;15.50;39.10
1165;DHT22;571;50.930;6.926;2023-04-03T12:09:35;15.60;36.50
1165;DHT22;571;50.930;6.926;2023-04-03T12:12:33;15.50;34.10
1165;DHT22;571;50.930;6.926;2023-04-03T12:21:22;15.70;35.80
1165;DHT22;571;50.930;6.926;2023-04-03T12:24:02;16.20;33.90
1165;DHT22;571;50.930;6.926;2023-04-03T12:26:41;16.40;33.00
1165;DHT22;571;50.930;6.926;2023-04-03T12:29:18;16.10;31.70
1165;DHT22;571;50.930;6.926;2023-04-03T12:31:55;16.60;32.30
1165;DHT22;571;50.930;6.926;2023-04-03T12:34:42;16.00;27.90
1165;DHT22;571;50.930;6.926;2023-04-03T12:37:24;16.60;30.00
1165;DHT22;571;50.930;6.926;2023-04-03T12:40:11;17.00;33.50
1165;DHT22;571;50.930;6.926;2023-04-03T12:45:43;18.00;31.30
1165;DHT22;571;50.930;6.926;2023-04-03T12:48:15;18.00;29.70
1165;DHT22;571;50.930;6.926;2023-04-03T12:50:45;18.50;29.70
1165;DHT22;571;50.930;6.926;2023-04-03T12:53:15;18.30;32.80
1165;DHT22;571;50.930;6.926;2023-04-03T12:55:53;18.60;30.40
1165;DHT22;571;50.930;6.926;2023-04-03T12:58:23;18.90;30.90
1165;DHT22;571;50.930;6.926;2023-04-03T13:01:03;19.00;30.60
1165;DHT22;571;50.930;6.926;2023-04-03T13:03:30;19.70;30.30
1165;DHT22;571;50.930;6.926;2023-04-03T13:06:01;19.70;30.90
1165;DHT22;571;50.930;6.926;2023-04-03T13:08:28;19.50;31.10
1165;DHT22;571;50.930;6.926;2023-04-03T13:11:01;19.90;30.70
1165;DHT22;571;50.930;6.926;2023-04-03T13:13:30;20.10;28.00
1165;DHT22;571;50.930;6.926;2023-04-03T13:15:59;19.50;28.70
1165;DHT22;571;50.930;6.926;2023-04-03T13:18:30;18.40;30.40
1165;DHT22;571;50.930;6.926;2023-04-03T13:21:01;18.00;29.10
1165;DHT22;571;50.930;6.926;2023-04-03T13:23:29;17.60;28.90
1165;DHT22;571;50.930;6.926;2023-04-03T13:25:57;18.30;29.10
1165;DHT22;571;50.930;6.926;2023-04-03T13:28:29;18.60;28.80
1165;DHT22;571;50.930;6.926;2023-04-03T13:31:05;18.50;30.00
1165;DHT22;571;50.930;6.926;2023-04-03T13:33:34;18.80;28.30
1165;DHT22;571;50.930;6.926;2023-04-03T13:36:05;19.00;27.60
1165;DHT22;571;50.930;6.926;2023-04-03T13:38:34;18.80;27.80
1165;DHT22;571;50.930;6.926;2023-04-03T13:41:04;18.10;27.80
1165;DHT22;571;50.930;6.926;2023-04-03T13:43:35;17.30;27.90
1165;DHT22;571;50.930;6.926;2023-04-03T13:46:19;17.40;28.90
1165;DHT22;571;50.930;6.926;2023-04-03T13:48:50;16.60;29.50
1165;DHT22;571;50.930;6.926;2023-04-03T13:51:21;16.70;29.10
1165;DHT22;571;50.930;6.926;2023-04-03T13:53:50;17.20;28.70
1165;DHT22;571;50.930;6.926;2023-04-03T13:56:23;17.00;28.10
1165;DHT22;571;50.930;6.926;2023-04-03T13:58:59;17.00;29.00
1165;DHT22;571;50.930;6.926;2023-04-03T14:01:41;17.00;28.20
1165;DHT22;571;50.930;6.926;2023-04-03T14:04:15;17.20;28.30
1165;DHT22;571;50.930;6.926;2023-04-03T14:06:45;17.20;28.50
1165;DHT22;571;50.930;6.926;2023-04-03T14:09:17;17.40;29.50
1165;DHT22;571;50.930;6.926;2023-04-03T14:11:45;17.40;29.60
1165;DHT22;571;50.930;6.926;2023-04-03T14:14:17;17.30;27.70
1165;DHT22;571;50.930;6.926;2023-04-03T14:16:47;17.70;29.30
1165;DHT22;571;50.930;6.926;2023-04-03T14:19:19;18.00;27.00
1165;DHT22;571;50.930;6.926;2023-04-03T14:21:46;18.20;27.70
1165;DHT22;571;50.930;6.926;2023-04-03T14:24:13;18.50;26.00
1165;DHT22;571;50.930;6.926;2023-04-03T14:26:40;19.00;27.90
1165;DHT22;571;50.930;6.926;2023-04-03T14:29:10;19.70;28.40
1165;DHT22;571;50.930;6.926;2023-04-03T14:31:38;20.10;26.70
1165;DHT22;571;50.930;6.926;2023-04-03T14:34:05;20.40;25.90
1165;DHT22;571;50.930;6.926;2023-04-03T14:36:33;20.90;27.90
1165;DHT22;571;50.930;6.926;2023-04-03T14:39:06;20.80;26.20
1165;DHT22;571;50.930;6.926;2023-04-03T14:41:39;21.50;27.20
1165;DHT22;571;50.930;6.926;2023-04-03T14:44:06;22.10;26.60
1165;DHT22;571;50.930;6.926;2023-04-03T14:46:35;22.20;27.10
1165;DHT22;571;50.930;6.926;2023-04-03T14:49:08;21.90;26.40
1165;DHT22;571;50.930;6.926;2023-04-03T14:51:38;22.10;27.20
1165;DHT22;571;50.930;6.926;2023-04-03T14:54:06;22.40;26.20
1165;DHT22;571;50.930;6.926;2023-04-03T14:56:37;22.20;26.10
1165;DHT22;571;50.930;6.926;2023-04-03T14:59:08;21.90;24.40
1165;DHT22;571;50.930;6.926;2023-04-03T15:01:36;21.70;26.00
1165;DHT22;571;50.930;6.926;2023-04-03T15:04:10;21.80;25.70
1165;DHT22;571;50.930;6.926;2023-04-03T15:06:38;22.20;25.30
1165;DHT22;571;50.930;6.926;2023-04-03T15:09:12;21.70;24.60
1165;DHT22;571;50.930;6.926;2023-04-03T15:11:44;21.80;24.00
1165;DHT22;571;50.930;6.926;2023-04-03T15:14:45;22.30;25.70
1165;DHT22;571;50.930;6.926;2023-04-03T15:17:19;22.60;25.20
1165;DHT22;571;50.930;6.926;2023-04-03T15:19:49;23.00;24.20
1165;DHT22;571;50.930;6.926;2023-04-03T15:22:18;22.20;22.60
1165;DHT22;571;50.930;6.926;2023-04-03T15:24:45;22.30;23.80
1165;DHT22;571;50.930;6.926;2023-04-03T15:27:13;21.50;22.10
1165;DHT22;571;50.930;6.926;2023-04-03T15:29:42;21.30;23.30
1165;DHT22;571;50.930;6.926;2023-04-03T15:32:09;20.90;23.10
1165;DHT22;571;50.930;6.926;2023-04-03T15:34:36;20.30;23.70
1165;DHT22;571;50.930;6.926;2023-04-03T15:37:06;19.50;24.40
1165;DHT22;571;50.930;6.926;2023-04-03T15:39:33;18.70;24.50
1165;DHT22;571;50.930;6.926;2023-04-03T15:41:59;18.00;25.60
1165;DHT22;571;50.930;6.926;2023-04-03T15:44:32;17.70;26.20
1165;DHT22;571;50.930;6.926;2023-04-03T15:46:59;17.10;25.80
1165;DHT22;571;50.930;6.926;2023-04-03T15:49:26;16.60;26.10
1165;DHT22;571;50.930;6.926;2023-04-03T15:51:53;15.70;25.40
1165;DHT22;571;50.930;6.926;2023-04-03T15:54:21;15.20;25.90
1165;DHT22;571;50.930;6.926;2023-04-03T15:56:49;15.00;26.70
1165;DHT22;571;50.930;6.926;2023-04-03T15:59:16;14.90;27.20
1165;DHT22;571;50.930;6.926;2023-04-03T16:01:43;14.80;27.40
1165;DHT22;571;50.930;6.926;2023-04-03T16:04:09;14.30;26.70
1165;DHT22;571;50.930;6.926;2023-04-03T16:06:37;14.20;27.80
1165;DHT22;571;50.930;6.926;2023-04-03T16:09:04;14.10;28.50
1165;DHT22;571;50.930;6.926;2023-04-03T16:11:34;13.80;28.10
1165;DHT22;571;50.930;6.926;2023-04-03T16:14:02;13.70;28.90
1165;DHT22;571;50.930;6.926;2023-04-03T16:16:29;13.50;29.20
1165;DHT22;571;50.930;6.926;2023-04-03T16:18:56;13.50;29.30
1165;DHT22;571;50.930;6.926;2023-04-03T16:21:23;13.60;29.00
1165;DHT22;571;50.930;6.926;2023-04-03T16:23:50;13.30;29.20
1165;DHT22;571;50.930;6.926;2023-04-03T16:26:17;13.30;29.80
1165;DHT22;571;50.930;6.926;2023-04-03T16:28:45;13.30;29.70
1165;DHT22;571;50.930;6.926;2023-04-03T16:31:12;13.20;29.80
1165;DHT22;571;50.930;6.926;2023-04-03T16:33:38;13.00;30.00
1165;DHT22;571;50.930;6.926;2023-04-03T16:36:06;13.00;30.70
1165;DHT22;571;50.930;6.926;2023-04-03T16:38:33;12.90;30.00
1165;DHT22;571;50.930;6.926;2023-04-03T16:41:00;12.80;29.70
1165;DHT22;571;50.930;6.926;2023-04-03T16:43:30;12.80;29.70
1165;DHT22;571;50.930;6.926;2023-04-03T16:45:58;12.60;29.00
1165;DHT22;571;50.930;6.926;2023-04-03T16:48:27;12.60;30.10
1165;DHT22;571;50.930;6.926;2023-04-03T16:50:54;12.70;30.10
1165;DHT22;571;50.930;6.926;2023-04-03T16:53:21;12.70;30.20
1165;DHT22;571;50.930;6.926;2023-04-03T16:55:48;12.50;30.90
1165;DHT22;571;50.930;6.926;2023-04-03T16:58:15;12.60;32.10
1165;DHT22;571;50.930;6.926;2023-04-03T17:00:42;12.60;32.00
1165;DHT22;571;50.930;6.926;2023-04-03T17:03:11;12.50;31.80
1165;DHT22;571;50.930;6.926;2023-04-03T17:05:37;12.40;31.60
1165;DHT22;571;50.930;6.926;2023-04-03T17:08:04;12.40;32.10
1165;DHT22;571;50.930;6.926;2023-04-03T17:10:31;12.20;32.70
1165;DHT22;571;50.930;6.926;2023-04-03T17:13:00;12.20;33.30
1165;DHT22;571;50.930;6.926;2023-04-03T17:15:26;12.10;33.40
1165;DHT22;571;50.930;6.926;2023-04-03T17:17:54;12.00;33.50
1165;DHT22;571;50.930;6.926;2023-04-03T17:20:22;12.00;34.20
1165;DHT22;571;50.930;6.926;2023-04-03T17:22:49;11.90;34.10
1165;DHT22;571;50.930;6.926;2023-04-03T17:25:15;11.70;34.30
1165;DHT22;571;50.930;6.926;2023-04-03T17:27:44;11.50;35.00
1165;DHT22;571;50.930;6.926;2023-04-03T17:30:14;11.50;33.90
1165;DHT22;571;50.930;6.926;2023-04-03T17:32:44;11.60;34.80
1165;DHT22;571;50.930;6.926;2023-04-03T17:35:11;11.60;34.40
1165;DHT22;571;50.930;6.926;2023-04-03T17:37:39;11.50;34.40
1165;DHT22;571;50.930;6.926;2023-04-03T17:40:08;11.50;34.90
1165;DHT22;571;50.930;6.926;2023-04-03T17:42:38;11.30;34.70
1165;DHT22;571;50.930;6.926;2023-04-03T17:45:06;11.20;34.60
1165;DHT22;571;50.930;6.926;2023-04-03T17:47:33;11.00;34.60
1165;DHT22;571;50.930;6.926;2023-04-03T17:50:00;11.10;34.70
1165;DHT22;571;50.930;6.926;2023-04-03T17:52:26;11.00;34.90
1165;DHT22;571;50.930;6.926;2023-04-03T17:54:55;10.80;35.60
1165;DHT22;571;50.930;6.926;2023-04-03T17:57:21;10.80;35.60
1165;DHT22;571;50.930;6.926;2023-04-03T17:59:48;10.70;34.80
1165;DHT22;571;50.930;6.926;2023-04-03T18:02:18;10.80;36.00
1165;DHT22;571;50.930;6.926;2023-04-03T18:04:45;10.80;35.40
1165;DHT22;571;50.930;6.926;2023-04-03T18:07:15;10.70;35.70
1165;DHT22;571;50.930;6.926;2023-04-03T18:09:41;10.70;35.80
1165;DHT22;571;50.930;6.926;2023-04-03T18:12:21;10.60;35.90
1165;DHT22;571;50.930;6.926;2023-04-03T18:14:51;10.50;36.40
1165;DHT22;571;50.930;6.926;2023-04-03T18:17:19;10.40;36.90
1165;DHT22;571;50.930;6.926;2023-04-03T18:19:46;10.40;37.70
1165;DHT22;571;50.930;6.926;2023-04-03T18:22:16;10.20;38.30
1165;DHT22;571;50.930;6.926;2023-04-03T18:24:52;10.10;38.70
1165;DHT22;571;50.930;6.926;2023-04-03T18:27:24;10.10;38.40
1165;DHT22;571;50.930;6.926;2023-04-03T18:30:06;10.20;38.30
1165;DHT22;571;50.930;6.926;2023-04-03T18:32:35;10.00;38.30
1165;DHT22;571;50.930;6.926;2023-04-03T18:35:02;9.90;39.50
1165;DHT22;571;50.930;6.926;2023-04-03T18:37:29;10.00;38.70
1165;DHT22;571;50.930;6.926;2023-04-03T18:39:57;10.00;38.50
1165;DHT22;571;50.930;6.926;2023-04-03T18:42:31;9.90;39.20
1165;DHT22;571;50.930;6.926;2023-04-03T18:45:00;9.90;39.50
1165;DHT22;571;50.930;6.926;2023-04-03T18:47:28;10.00;38.60
1165;DHT22;571;50.930;6.926;2023-04-03T18:49:56;10.00;38.60
1165;DHT22;571;50.930;6.926;2023-04-03T18:52:26;9.90;39.10
1165;DHT22;571;50.930;6.926;2023-04-03T18:54:53;9.80;39.30
1165;DHT22;571;50.930;6.926;2023-04-03T18:57:21;9.70;40.10
1165;DHT22;571;50.930;6.926;2023-04-03T18:59:50;9.70;39.90
1165;DHT22;571;50.930;6.926;2023-04-03T19:02:17;9.70;39.90
1165;DHT22;571;50.930;6.926;2023-04-03T19:04:46;9.60;39.80
1165;DHT22;571;50.930;6.926;2023-04-03T19:07:14;9.60;40.20
1165;DHT22;571;50.930;6.926;2023-04-03T19:09:40;9.50;39.60
1165;DHT22;571;50.930;6.926;2023-04-03T19:12:07;9.50;40.20
1165;DHT22;571;50.930;6.926;2023-04-03T19:14:34;9.40;40.00
1165;DHT22;571;50.930;6.926;2023-04-03T19:17:02;9.40;40.20
1165;DHT22;571;50.930;6.926;2023-04-03T19:19:31;9.20;40.40
1165;DHT22;571;50.930;6.926;2023-04-03T19:21:58;9.30;40.70
1165;DHT22;571;50.930;6.926;2023-04-03T19:24:25;9.40;40.60
1165;DHT22;571;50.930;6.926;2023-04-03T19:26:52;9.40;40.90
1165;DHT22;571;50.930;6.926;2023-04-03T19:29:20;9.30;40.40
1165;DHT22;571;50.930;6.926;2023-04-03T19:31:47;9.20;40.80
1165;DHT22;571;50.930;6.926;2023-04-03T19:34:16;9.20;40.20
1165;DHT22;571;50.930;6.926;2023-04-03T19:36:43;9.20;40.80
1165;DHT22;571;50.930;6.926;2023-04-03T19:39:14;9.10;40.80
1165;DHT22;571;50.930;6.926;2023-04-03T19:41:44;9.10;41.20
1165;DHT22;571;50.930;6.926;2023-04-03T19:44:11;9.00;41.20
1165;DHT22;571;50.930;6.926;2023-04-03T19:46:38;8.90;40.50
1165;DHT22;571;50.930;6.926;2023-04-03T19:49:05;8.90;41.40
1165;DHT22;571;50.930;6.926;2023-04-03T19:51:34;8.80;41.90
1165;DHT22;571;50.930;6.926;2023-04-03T19:54:00;8.90;42.10
1165;DHT22;571;50.930;6.926;2023-04-03T19:56:27;8.80;42.40
1165;DHT22;571;50.930;6.926;2023-04-03T19:58:54;8.90;42.60
1165;DHT22;571;50.930;6.926;2023-04-03T20:01:22;8.70;42.10
1165;DHT22;571;50.930;6.926;2023-04-03T20:03:49;8.60;42.90
1165;DHT22;571;50.930;6.926;2023-04-03T20:06:16;8.60;42.60
1165;DHT22;571;50.930;6.926;2023-04-03T20:08:44;8.50;42.90
1165;DHT22;571;50.930;6.926;2023-04-03T20:11:11;8.40;42.90
1165;DHT22;571;50.930;6.926;2023-04-03T20:13:38;8.40;43.30
1165;DHT22;571;50.930;6.926;2023-04-03T20:16:06;8.40;43.40
1165;DHT22;571;50.930;6.926;2023-04-03T20:18:34;8.30;44.20
1165;DHT22;571;50.930;6.926;2023-04-03T20:21:12;8.40;44.10
1165;DHT22;571;50.930;6.926;2023-04-03T20:23:44;8.40;44.70
1165;DHT22;571;50.930;6.926;2023-04-03T20:26:18;8.40;44.30
1165;DHT22;571;50.930;6.926;2023-04-03T20:28:48;8.30;44.50
1165;DHT22;571;50.930;6.926;2023-04-03T20:31:15;8.30;44.50
1165;DHT22;571;50.930;6.926;2023-04-03T20:33:42;8.30;44.90
1165;DHT22;571;50.930;6.926;2023-04-03T20:36:09;8.30;45.50
1165;DHT22;571;50.930;6.926;2023-04-03T20:38:44;8.20;45.10
1165;DHT22;571;50.930;6.926;2023-04-03T20:41:15;8.30;44.90
1165;DHT22;571;50.930;6.926;2023-04-03T20:43:42;8.20;45.10
1165;DHT22;571;50.930;6.926;2023-04-03T20:46:12;8.30;45.10
1165;DHT22;571;50.930;6.926;2023-04-03T20:48:43;8.10;44.70
1165;DHT22;571;50.930;6.926;2023-04-03T20:51:13;8.10;44.90
1165;DHT22;571;50.930;6.926;2023-04-03T20:53:41;8.10;44.90
1165;DHT22;571;50.930;6.926;2023-04-03T20:56:09;8.10;45.50